Time;durP1;ratioP1;P1;durP2;ratioP2;P2;SDS_P1;SDS_P2;PMS_P1;PMS_P2;Temp;Humidity;BMP_temperature;BMP_pressure;BME280_temperature;BME280_humidity;BME280_pressure;Samples;Min_cycle;Max_cycle;Signal;HPM_P1;HPM_P2
2023/01/01 00:01:18;;;;;;;32.42;10.48;;;13.80;99.90;;;;;;5053611;28;20029;-79
2023/01/01 00:03:48;;;;;;;25.45;10.75;;;13.80;99.90;;;;;;5052264;28;20037;-81
2023/01/01 00:06:14;;;;;;;30.88;11.60;;;13.80;99.90;;;;;;5025661;28;20033;-79
2023/01/01 00:08:40;;;;;;;27.88;10.65;;;13.80;99.90;;;;;;5050451;28;20051;-84
2023/01/01 00:11:07;;;;;;;27.60;10.13;;;13.80;99.90;;;;;;5024983;28;20063;-79
2023/01/01 00:13:35;;;;;;;23.15;8.43;;;13.80;99.90;;;;;;5050058;28;20051;-84
2023/01/01 00:16:12;;;;;;;24.60;8.40;;;13.80;99.90;;;;;;5034780;28;20032;-80
2023/01/01 00:18:41;;;;;;;26.17;8.02;;;13.70;99.90;;;;;;5022395;28;20403;-79
2023/01/01 00:21:10;;;;;;;20.15;8.25;;;13.80;99.90;;;;;;5060182;28;20117;-81
2023/01/01 00:23:37;;;;;;;25.75;8.60;;;13.70;99.90;;;;;;5024521;28;20050;-81
2023/01/01 00:26:21;;;;;;;21.27;7.65;;;13.70;99.90;;;;;;5041416;28;20059;-82
2023/01/01 00:28:47;;;;;;;24.25;8.48;;;13.70;99.90;;;;;;5015637;28;20040;-80
2023/01/01 00:31:18;;;;;;;26.05;8.48;;;13.70;99.90;;;;;;5035255;28;20041;-82
2023/01/01 00:33:45;;;;;;;27.27;8.50;;;13.60;99.90;;;;;;5038720;28;20051;-80
2023/01/01 00:36:16;;;;;;;19.02;9.40;;;13.60;99.90;;;;;;5054804;28;20059;-78
2023/01/01 00:38:43;;;;;;;22.15;9.30;;;13.60;99.90;;;;;;5027918;28;20438;-80
2023/01/01 00:41:10;;;;;;;23.50;10.30;;;13.50;99.90;;;;;;5061732;28;20416;-83
2023/01/01 00:43:35;;;;;;;27.25;10.60;;;13.50;99.90;;;;;;5026372;28;20033;-80
2023/01/01 00:46:01;;;;;;;33.95;11.38;;;13.50;99.90;;;;;;5050051;28;20059;-83
2023/01/01 00:48:27;;;;;;;26.02;10.90;;;13.50;99.90;;;;;;5031375;28;20128;-80
2023/01/01 00:50:53;;;;;;;25.30;11.70;;;13.50;99.90;;;;;;5033500;28;20559;-81
2023/01/01 00:53:19;;;;;;;30.08;12.50;;;13.50;99.90;;;;;;5038717;28;20041;-84
2023/01/01 00:55:47;;;;;;;27.45;13.10;;;13.50;99.90;;;;;;5040855;28;20097;-81
2023/01/01 00:58:14;;;;;;;30.60;13.45;;;13.50;99.90;;;;;;5032987;28;20043;-81
2023/01/01 01:00:39;;;;;;;34.58;12.63;;;13.40;99.90;;;;;;5043340;28;20340;-80
2023/01/01 01:03:07;;;;;;;34.10;15.55;;;13.40;99.90;;;;;;5037551;28;20052;-82
2023/01/01 01:05:37;;;;;;;30.45;15.00;;;13.30;99.90;;;;;;5017138;28;20098;-79
2023/01/01 01:08:03;;;;;;;35.17;17.45;;;13.40;99.90;;;;;;5052485;28;20068;-80
2023/01/01 01:10:29;;;;;;;33.08;17.65;;;13.40;99.90;;;;;;5054939;28;20484;-78
2023/01/01 01:12:55;;;;;;;33.67;20.08;;;13.30;99.90;;;;;;5018670;28;20045;-81
2023/01/01 01:15:21;;;;;;;36.08;20.83;;;13.30;99.90;;;;;;5020237;28;20463;-82
2023/01/01 01:17:46;;;;;;;42.28;22.42;;;13.30;99.90;;;;;;5022997;28;20037;-80
2023/01/01 01:20:12;;;;;;;42.47;24.15;;;13.20;99.90;;;;;;5037728;28;20045;-81
2023/01/01 01:22:38;;;;;;;48.65;25.92;;;13.10;99.90;;;;;;5029273;28;20052;-80
2023/01/01 01:25:05;;;;;;;45.75;26.83;;;13.10;99.90;;;;;;5016807;28;20037;-81
2023/01/01 01:27:31;;;;;;;59.33;34.25;;;13.10;99.90;;;;;;5023767;28;20400;-82
2023/01/01 01:29:57;;;;;;;73.43;40.45;;;12.90;99.90;;;;;;5019074;28;20041;-82
2023/01/01 01:32:23;;;;;;;51.53;30.48;;;12.80;99.90;;;;;;5018622;28;20381;-80
2023/01/01 01:34:49;;;;;;;62.75;36.55;;;12.80;99.90;;;;;;5011744;28;20051;-84
2023/01/01 01:37:14;;;;;;;44.20;27.90;;;12.80;99.90;;;;;;5027326;28;20032;-80
2023/01/01 01:39:40;;;;;;;54.00;31.20;;;12.90;99.90;;;;;;5014431;28;20878;-80
2023/01/01 01:42:06;;;;;;;66.75;42.97;;;12.90;99.90;;;;;;5029887;28;20071;-81
2023/01/01 01:44:49;;;;;;;51.53;32.03;;;12.70;99.90;;;;;;5020507;28;20456;-84
2023/01/01 01:47:36;;;;;;;50.72;32.72;;;12.70;99.90;;;;;;5043981;28;20032;-81
2023/01/01 01:50:22;;;;;;;57.42;35.03;;;12.50;99.90;;;;;;5035873;28;20044;-82
2023/01/01 01:53:08;;;;;;;60.13;35.42;;;12.70;99.90;;;;;;5033397;28;20049;-83
2023/01/01 01:55:37;;;;;;;67.30;38.83;;;12.60;99.90;;;;;;5018507;28;20045;-83
2023/01/01 01:58:04;;;;;;;65.20;36.53;;;12.70;99.90;;;;;;5024523;28;20041;-81
2023/01/01 02:00:30;;;;;;;53.13;35.05;;;12.50;99.90;;;;;;5020064;28;20053;-82
2023/01/01 02:03:05;;;;;;;54.70;32.83;;;12.50;99.90;;;;;;5019450;28;20041;-79
2023/01/01 02:05:32;;;;;;;56.47;33.08;;;12.40;99.90;;;;;;5050042;28;20583;-79
2023/01/01 02:07:59;;;;;;;67.68;35.53;;;12.40;99.90;;;;;;5051560;28;20103;-84
2023/01/01 02:10:27;;;;;;;59.38;36.17;;;12.50;99.90;;;;;;5053327;28;20063;-81
2023/01/01 02:12:52;;;;;;;63.35;38.90;;;12.40;99.90;;;;;;5039436;28;20108;-81
2023/01/01 02:15:19;;;;;;;65.35;40.20;;;12.50;99.90;;;;;;5018411;28;20228;-79
2023/01/01 02:18:06;;;;;;;67.93;40.03;;;12.40;99.90;;;;;;5031782;28;20037;-80
2023/01/01 02:20:47;;;;;;;66.63;41.08;;;12.30;99.90;;;;;;5053826;28;20048;-80
2023/01/01 02:23:25;;;;;;;74.80;42.22;;;12.30;99.90;;;;;;5032567;28;20044;-81
2023/01/01 02:26:16;;;;;;;69.70;42.85;;;12.40;99.90;;;;;;5033105;28;20061;-81
2023/01/01 02:28:42;;;;;;;65.93;43.65;;;12.30;99.90;;;;;;5035004;28;20049;-81
2023/01/01 02:31:13;;;;;;;66.88;41.03;;;12.50;99.90;;;;;;5051945;28;20119;-82
2023/01/01 02:33:40;;;;;;;59.28;35.97;;;12.20;99.90;;;;;;5020495;28;20045;-79
2023/01/01 02:36:09;;;;;;;68.50;37.20;;;12.50;99.90;;;;;;5019853;28;20054;-81
2023/01/01 02:38:45;;;;;;;66.72;35.45;;;12.50;99.90;;;;;;5019070;28;20040;-81
2023/01/01 02:41:18;;;;;;;53.67;33.65;;;12.40;99.90;;;;;;5018387;28;20029;-81
2023/01/01 02:43:44;;;;;;;56.17;33.22;;;12.50;99.90;;;;;;5034421;28;20131;-83
2023/01/01 02:46:11;;;;;;;52.30;30.73;;;12.50;99.90;;;;;;5037338;28;20420;-79
2023/01/01 02:48:43;;;;;;;64.15;32.85;;;12.30;99.90;;;;;;5019779;28;20033;-80
2023/01/01 02:51:21;;;;;;;60.22;31.58;;;12.30;99.90;;;;;;5030360;28;20048;-79
2023/01/01 02:53:58;;;;;;;58.55;33.78;;;12.30;99.90;;;;;;5034628;28;20495;-80
2023/01/01 02:56:29;;;;;;;53.28;35.40;;;12.50;99.90;;;;;;5016204;28;20081;-80
2023/01/01 03:02:38;;;;;;;48.20;29.10;;;12.40;99.90;;;;;;5050040;28;20037;-82
2023/01/01 03:06:21;;;;;;;49.28;26.67;;;12.40;99.90;;;;;;5051802;28;20057;-80
2023/01/01 03:08:29;;;;;;;46.42;27.30;;;12.20;99.90;;;;;;5034476;28;20054;-79
2023/01/01 03:11:12;;;;;;;44.10;26.88;;;12.10;99.90;;;;;;5035644;28;20041;-82
2023/01/01 03:14:13;;;;;;;54.92;28.63;;;12.20;99.90;;;;;;5028164;28;20037;-83
2023/01/01 03:16:56;;;;;;;55.45;29.27;;;12.00;99.90;;;;;;4947765;28;20129;-80
2023/01/01 03:19:25;;;;;;;51.03;26.42;;;12.00;99.90;;;;;;4947725;28;20047;-79
2023/01/01 03:21:51;;;;;;;45.17;20.98;;;12.20;99.90;;;;;;4944777;28;20083;-79
2023/01/01 03:24:29;;;;;;;39.00;16.92;;;12.20;99.90;;;;;;4965299;28;20062;-78
2023/01/01 03:27:00;;;;;;;36.85;17.58;;;12.00;99.90;;;;;;4933347;28;20051;-76
2023/01/01 03:29:28;;;;;;;37.75;18.45;;;11.70;99.90;;;;;;4951297;28;20109;-79
2023/01/01 03:31:58;;;;;;;45.90;18.40;;;11.80;99.90;;;;;;4949318;28;20051;-80
2023/01/01 03:34:31;;;;;;;32.22;17.23;;;11.80;99.90;;;;;;4936578;28;20118;-80
2023/01/01 03:37:01;;;;;;;32.35;17.13;;;12.00;99.90;;;;;;4949235;28;20058;-83
2023/01/01 03:39:33;;;;;;;29.13;14.48;;;11.90;99.90;;;;;;4964977;28;20510;-79
2023/01/01 03:42:18;;;;;;;34.05;13.23;;;11.50;99.90;;;;;;4945094;28;20057;-81
2023/01/01 03:44:51;;;;;;;31.92;13.88;;;12.00;99.90;;;;;;4962401;28;20047;-78
2023/01/01 03:47:17;;;;;;;30.42;13.10;;;11.60;99.90;;;;;;4956093;28;20043;-79
2023/01/01 03:49:43;;;;;;;31.40;13.48;;;11.80;99.90;;;;;;4977555;28;20415;-77
2023/01/01 03:52:35;;;;;;;31.33;13.18;;;11.40;99.90;;;;;;4967072;28;20056;-81
2023/01/01 03:55:18;;;;;;;25.10;10.93;;;11.90;99.90;;;;;;4965241;28;20840;-79
2023/01/01 03:57:55;;;;;;;29.63;11.60;;;11.50;99.90;;;;;;4995999;28;20505;-81
2023/01/01 04:00:26;;;;;;;24.25;10.90;;;11.80;99.90;;;;;;4951965;28;20149;-78
2023/01/01 04:02:58;;;;;;;23.13;11.02;;;11.40;99.90;;;;;;4983581;28;20760;-81
2023/01/01 04:05:24;;;;;;;21.02;10.10;;;11.50;99.90;;;;;;4950634;28;20517;-82
2023/01/01 04:07:51;;;;;;;23.27;8.55;;;11.80;99.90;;;;;;4965700;28;20042;-81
2023/01/01 04:10:17;;;;;;;21.23;7.30;;;11.80;99.90;;;;;;4998444;28;20045;-79
2023/01/01 04:12:55;;;;;;;16.25;6.38;;;11.70;99.90;;;;;;4985017;28;20497;-81
2023/01/01 04:15:26;;;;;;;15.18;6.75;;;11.50;99.90;;;;;;4974428;28;20062;-78
2023/01/01 04:17:52;;;;;;;18.60;6.05;;;11.80;99.90;;;;;;4976546;28;20612;-80
2023/01/01 04:20:19;;;;;;;19.55;5.82;;;11.70;99.90;;;;;;4971454;28;20046;-79
2023/01/01 04:22:45;;;;;;;24.27;6.15;;;11.80;99.90;;;;;;4987604;28;20042;-78
2023/01/01 04:25:11;;;;;;;22.17;6.18;;;12.00;99.90;;;;;;4986436;28;20512;-79
2023/01/01 04:27:38;;;;;;;20.08;5.28;;;12.00;99.90;;;;;;4966876;28;20056;-81
2023/01/01 04:30:06;;;;;;;20.38;5.07;;;11.70;99.90;;;;;;5001345;28;20556;-82
2023/01/01 04:32:32;;;;;;;20.42;4.78;;;12.00;99.90;;;;;;5028424;28;21599;-79
2023/01/01 04:34:58;;;;;;;22.02;4.97;;;12.00;99.90;;;;;;5045538;28;20044;-80
2023/01/01 04:37:23;;;;;;;25.27;5.47;;;11.80;99.90;;;;;;5027954;28;20053;-81
2023/01/01 04:39:51;;;;;;;23.80;5.20;;;11.60;99.90;;;;;;5014869;28;20048;-83
2023/01/01 04:42:16;;;;;;;26.13;5.30;;;12.00;99.90;;;;;;5010448;28;20041;-80
2023/01/01 04:44:42;;;;;;;23.85;4.82;;;11.50;99.90;;;;;;5022944;28;20445;-82
2023/01/01 04:47:08;;;;;;;24.55;4.95;;;11.90;99.90;;;;;;5025304;28;20127;-79
2023/01/01 04:49:33;;;;;;;28.65;5.57;;;11.90;99.90;;;;;;5014371;28;20567;-79
2023/01/01 04:51:59;;;;;;;23.00;5.35;;;11.50;99.90;;;;;;5029409;28;20497;-79
2023/01/01 04:54:25;;;;;;;31.73;6.28;;;11.60;99.90;;;;;;5030852;28;20057;-78
2023/01/01 04:56:50;;;;;;;23.08;5.90;;;11.70;99.90;;;;;;5031981;28;20032;-81
2023/01/01 04:59:16;;;;;;;24.60;6.07;;;11.60;99.90;;;;;;5066337;28;20041;-77
2023/01/01 05:01:41;;;;;;;22.63;6.68;;;11.80;99.90;;;;;;5064570;28;20052;-78
2023/01/01 05:04:12;;;;;;;20.73;5.85;;;11.50;99.90;;;;;;5065603;28;20048;-79
2023/01/01 05:06:38;;;;;;;24.15;6.55;;;11.80;99.90;;;;;;5016806;28;20037;-81
2023/01/01 05:09:03;;;;;;;23.63;5.82;;;11.80;99.90;;;;;;5052181;28;20040;-82
2023/01/01 05:11:29;;;;;;;20.33;5.05;;;11.50;99.90;;;;;;5072571;28;20040;-80
2023/01/01 05:13:58;;;;;;;18.92;4.78;;;11.50;99.90;;;;;;5057337;28;20051;-80
2023/01/01 05:16:29;;;;;;;17.38;4.03;;;11.80;99.90;;;;;;5037112;28;20053;-83
2023/01/01 05:18:55;;;;;;;19.65;4.43;;;11.80;99.90;;;;;;5034620;28;20468;-77
2023/01/01 05:21:31;;;;;;;22.90;4.13;;;11.70;99.90;;;;;;5036194;28;20484;-78
2023/01/01 05:24:00;;;;;;;16.63;3.83;;;11.60;99.90;;;;;;5013803;28;20037;-81
2023/01/01 05:26:29;;;;;;;14.13;4.03;;;11.80;99.90;;;;;;5036188;28;20357;-84
2023/01/01 05:28:56;;;;;;;14.23;3.50;;;11.70;99.90;;;;;;5040253;28;20132;-78
2023/01/01 05:31:24;;;;;;;25.23;3.85;;;11.70;99.90;;;;;;5052622;28;20080;-80
2023/01/01 05:33:51;;;;;;;17.23;3.70;;;11.80;99.90;;;;;;5036972;28;20064;-78
2023/01/01 05:36:19;;;;;;;17.35;3.17;;;11.60;99.90;;;;;;5039137;28;20451;-81
2023/01/01 05:38:46;;;;;;;16.08;3.17;;;11.80;99.90;;;;;;5023849;28;20033;-82
2023/01/01 05:41:13;;;;;;;10.93;3.03;;;11.90;99.90;;;;;;5072495;28;20488;-80
2023/01/01 05:43:40;;;;;;;13.52;2.90;;;11.60;99.90;;;;;;5073444;28;20040;-80
2023/01/01 05:46:09;;;;;;;17.05;3.72;;;11.70;99.90;;;;;;5073657;28;20036;-78
2023/01/01 05:48:37;;;;;;;15.73;2.63;;;11.60;99.90;;;;;;5032038;28;20627;-79
2023/01/01 05:51:28;;;;;;;16.98;3.03;;;11.80;99.90;;;;;;5036779;28;20060;-81
2023/01/01 05:53:54;;;;;;;17.67;2.97;;;11.80;99.90;;;;;;5032003;28;20063;-81
2023/01/01 05:56:21;;;;;;;17.48;3.40;;;11.60;99.90;;;;;;5029982;28;20518;-80
2023/01/01 05:58:47;;;;;;;14.65;3.13;;;11.60;99.90;;;;;;5036269;28;20052;-81
2023/01/01 06:01:20;;;;;;;16.10;2.90;;;11.60;99.90;;;;;;5019601;28;20051;-80
2023/01/01 06:03:49;;;;;;;12.82;2.38;;;11.70;99.90;;;;;;5052619;28;20045;-81
2023/01/01 06:06:20;;;;;;;12.18;2.30;;;11.60;99.90;;;;;;5068442;28;20048;-79
2023/01/01 06:08:57;;;;;;;13.55;2.47;;;11.70;99.90;;;;;;5048448;28;20044;-83
2023/01/01 06:11:23;;;;;;;15.07;2.20;;;11.60;99.90;;;;;;5067883;28;20132;-81
2023/01/01 06:13:54;;;;;;;10.68;2.63;;;11.60;99.90;;;;;;5049275;28;20049;-81
2023/01/01 06:16:19;;;;;;;10.38;1.88;;;11.60;99.90;;;;;;5016193;28;20075;-79
2023/01/01 06:18:45;;;;;;;12.23;2.40;;;11.40;99.90;;;;;;5022518;28;20048;-77
2023/01/01 06:21:16;;;;;;;13.15;2.47;;;11.50;99.90;;;;;;5056013;28;20350;-79
2023/01/01 06:23:42;;;;;;;12.18;2.15;;;11.40;99.90;;;;;;5062486;28;20083;-81
2023/01/01 06:26:11;;;;;;;12.88;1.88;;;11.50;99.90;;;;;;5042623;28;20036;-77
2023/01/01 06:28:37;;;;;;;15.23;2.40;;;11.50;99.90;;;;;;5062168;28;20420;-77
2023/01/01 06:31:05;;;;;;;9.98;2.03;;;11.50;99.90;;;;;;5034464;28;20140;-81
2023/01/01 06:33:31;;;;;;;11.38;2.35;;;11.50;99.90;;;;;;5055139;28;20182;-81
2023/01/01 06:35:58;;;;;;;11.82;1.80;;;11.40;99.90;;;;;;5035845;28;20107;-77
2023/01/01 06:38:24;;;;;;;13.40;2.15;;;11.50;99.90;;;;;;5017080;28;20072;-81
2023/01/01 06:41:06;;;;;;;13.65;2.30;;;11.40;99.90;;;;;;5053449;28;20107;-82
2023/01/01 06:43:34;;;;;;;13.85;2.10;;;11.40;99.90;;;;;;5053439;28;20098;-83
2023/01/01 06:46:24;;;;;;;14.38;2.20;;;11.50;99.90;;;;;;5031683;28;20048;-80
2023/01/01 06:48:53;;;;;;;11.75;2.22;;;11.30;99.90;;;;;;5049614;28;20048;-78
2023/01/01 06:51:22;;;;;;;17.38;2.42;;;11.40;99.90;;;;;;5051950;28;20041;-82
2023/01/01 06:53:49;;;;;;;18.63;2.42;;;11.40;99.90;;;;;;5019002;28;20135;-79
2023/01/01 06:56:15;;;;;;;18.33;2.60;;;11.40;99.90;;;;;;5019946;28;20033;-83
2023/01/01 06:58:41;;;;;;;15.15;2.60;;;11.30;99.90;;;;;;5036734;28;20060;-82
2023/01/01 07:01:10;;;;;;;14.75;2.63;;;11.30;99.90;;;;;;5039971;28;20092;-83
2023/01/01 07:03:37;;;;;;;11.77;2.60;;;11.20;99.90;;;;;;5014657;28;20123;-80
2023/01/01 07:06:04;;;;;;;19.52;2.53;;;11.30;99.90;;;;;;5031036;28;20052;-81
2023/01/01 07:12:10;;;;;;;14.18;2.40;;;11.20;99.90;;;;;;5071597;28;20044;-79
2023/01/01 07:14:36;;;;;;;18.23;2.67;;;11.20;99.90;;;;;;5029876;28;20140;-81
2023/01/01 07:17:01;;;;;;;13.68;2.35;;;11.20;99.90;;;;;;5035533;28;20040;-81
2023/01/01 07:19:27;;;;;;;23.67;2.92;;;11.20;99.90;;;;;;5032283;28;20118;-81
2023/01/01 07:21:54;;;;;;;17.67;2.45;;;11.20;99.90;;;;;;5051258;28;20423;-78
2023/01/01 07:24:20;;;;;;;20.30;3.10;;;11.10;99.90;;;;;;5051950;28;20500;-82
2023/01/01 07:26:46;;;;;;;16.23;2.97;;;11.10;99.90;;;;;;5017727;28;20053;-79
2023/01/01 07:29:12;;;;;;;20.33;3.60;;;11.10;99.90;;;;;;5037709;28;20047;-79
2023/01/01 07:31:40;;;;;;;25.50;3.60;;;11.10;99.90;;;;;;5041452;28;20036;-82
2023/01/01 07:34:09;;;;;;;23.20;3.25;;;11.10;99.90;;;;;;5067928;28;20041;-82
2023/01/01 07:36:34;;;;;;;22.02;3.50;;;11.00;99.90;;;;;;5033797;28;20128;-80
2023/01/01 07:39:00;;;;;;;17.65;3.13;;;11.00;99.90;;;;;;5047642;28;20555;-83
2023/01/01 07:41:26;;;;;;;21.45;3.38;;;11.00;99.90;;;;;;5053557;28;20392;-82
2023/01/01 07:43:51;;;;;;;23.08;3.60;;;10.90;99.90;;;;;;5049837;28;20063;-81
2023/01/01 07:46:20;;;;;;;27.23;3.85;;;10.90;99.90;;;;;;5018157;28;20059;-81
2023/01/01 07:48:45;;;;;;;25.95;3.72;;;11.00;99.90;;;;;;5033979;28;20133;-83
2023/01/01 07:51:11;;;;;;;26.63;3.88;;;10.90;99.90;;;;;;5033315;28;20117;-83
2023/01/01 07:53:37;;;;;;;29.75;3.67;;;10.90;99.90;;;;;;5040333;28;20125;-79
2023/01/01 07:56:03;;;;;;;27.92;3.70;;;10.90;99.90;;;;;;5016756;28;20041;-81
2023/01/01 07:58:31;;;;;;;22.52;3.92;;;10.80;99.90;;;;;;5048210;28;20044;-85
2023/01/01 08:00:57;;;;;;;20.80;3.13;;;10.80;99.90;;;;;;5057335;28;20110;-79
2023/01/01 08:03:23;;;;;;;27.17;3.53;;;10.80;99.90;;;;;;5066590;28;20045;-81
2023/01/01 08:05:48;;;;;;;28.10;4.05;;;10.90;99.90;;;;;;5018477;28;20111;-79
2023/01/01 08:08:14;;;;;;;24.00;3.38;;;10.80;99.90;;;;;;5029938;28;20040;-78
2023/01/01 08:10:40;;;;;;;27.20;3.75;;;11.00;99.90;;;;;;5028777;28;20105;-79
2023/01/01 08:13:07;;;;;;;23.33;3.97;;;11.00;99.90;;;;;;5009252;28;20506;-79
2023/01/01 08:15:33;;;;;;;28.27;3.72;;;10.90;99.90;;;;;;5025071;28;20072;-78
2023/01/01 08:18:01;;;;;;;28.80;4.65;;;10.90;99.90;;;;;;5027026;28;20037;-82
2023/01/01 08:20:29;;;;;;;25.90;3.53;;;10.90;99.90;;;;;;5011324;28;20132;-79
2023/01/01 08:23:13;;;;;;;25.15;3.58;;;10.90;99.90;;;;;;5028985;28;20806;-79
2023/01/01 08:25:38;;;;;;;27.27;3.97;;;10.80;99.90;;;;;;5028100;28;20036;-79
2023/01/01 08:28:04;;;;;;;37.17;4.88;;;10.80;99.90;;;;;;5043171;28;20126;-80
2023/01/01 08:30:30;;;;;;;32.45;4.85;;;10.90;99.90;;;;;;5031291;28;20044;-83
2023/01/01 08:32:55;;;;;;;26.17;4.03;;;10.80;99.90;;;;;;5045663;28;20490;-82
2023/01/01 08:35:21;;;;;;;30.10;4.47;;;10.80;99.90;;;;;;5032576;28;20812;-79
2023/01/01 08:37:47;;;;;;;30.65;4.13;;;10.90;99.90;;;;;;5031634;28;20047;-81
2023/01/01 08:40:13;;;;;;;36.50;5.20;;;10.80;99.90;;;;;;5030580;28;20075;-79
2023/01/01 08:42:39;;;;;;;24.95;3.88;;;10.80;99.90;;;;;;5044336;28;20037;-82
2023/01/01 08:45:05;;;;;;;29.27;4.25;;;10.80;99.90;;;;;;5017889;28;20148;-82
2023/01/01 08:47:32;;;;;;;31.38;4.82;;;10.90;99.90;;;;;;5030100;28;20148;-80
2023/01/01 08:49:58;;;;;;;39.95;5.00;;;10.80;99.90;;;;;;5042813;28;20037;-80
2023/01/01 08:52:23;;;;;;;27.75;4.25;;;10.80;99.90;;;;;;5056162;28;20395;-79
2023/01/01 08:54:49;;;;;;;30.23;4.13;;;10.90;99.90;;;;;;5029875;28;20044;-82
2023/01/01 08:57:15;;;;;;;32.67;4.70;;;10.90;99.90;;;;;;5024120;28;20036;-78
2023/01/01 08:59:40;;;;;;;25.45;4.47;;;10.90;99.90;;;;;;5019966;28;20155;-79
2023/01/01 09:02:06;;;;;;;24.55;4.43;;;10.90;99.90;;;;;;5035208;28;20045;-82
2023/01/01 09:04:32;;;;;;;32.22;4.22;;;10.80;99.90;;;;;;5040882;28;20488;-82
2023/01/01 09:06:58;;;;;;;30.83;4.65;;;10.90;99.90;;;;;;5027233;28;20083;-81
2023/01/01 09:09:23;;;;;;;25.38;4.15;;;10.80;99.90;;;;;;5010287;28;20064;-81
2023/01/01 09:11:54;;;;;;;28.33;4.07;;;10.90;99.90;;;;;;5024264;28;20115;-80
2023/01/01 09:14:21;;;;;;;30.30;4.68;;;11.00;99.90;;;;;;5022093;28;20087;-78
2023/01/01 09:16:47;;;;;;;37.60;4.70;;;10.90;99.90;;;;;;5057032;28;20480;-77
2023/01/01 09:19:13;;;;;;;29.67;3.85;;;11.00;99.90;;;;;;5023414;28;20049;-79
2023/01/01 09:21:38;;;;;;;27.85;4.43;;;10.90;99.90;;;;;;5058466;28;20033;-78
2023/01/01 09:24:04;;;;;;;32.05;4.10;;;11.00;99.90;;;;;;5028513;28;20040;-79
2023/01/01 09:26:30;;;;;;;29.13;4.18;;;11.10;99.90;;;;;;5033918;28;20061;-79
2023/01/01 09:28:57;;;;;;;30.02;4.32;;;11.00;99.90;;;;;;5017898;28;20059;-78
2023/01/01 09:31:25;;;;;;;29.08;3.85;;;11.00;99.90;;;;;;5032925;28;20045;-79
2023/01/01 09:33:51;;;;;;;35.13;5.15;;;11.00;99.90;;;;;;5009635;28;20033;-82
2023/01/01 09:36:19;;;;;;;31.45;4.40;;;11.00;99.90;;;;;;5028992;28;20102;-78
2023/01/01 09:38:54;;;;;;;32.53;4.38;;;10.90;99.90;;;;;;5022857;28;20106;-79
2023/01/01 09:41:42;;;;;;;28.70;4.15;;;11.00;99.90;;;;;;5002532;28;20033;-79
2023/01/01 09:44:23;;;;;;;32.65;4.28;;;11.00;99.90;;;;;;5007122;28;20091;-81
2023/01/01 09:46:51;;;;;;;37.15;5.00;;;11.10;99.90;;;;;;5041320;28;20130;-78
2023/01/01 09:49:30;;;;;;;29.05;4.40;;;11.10;99.90;;;;;;5023362;28;20090;-80
2023/01/01 09:52:00;;;;;;;27.42;4.30;;;11.00;99.90;;;;;;5021909;28;20041;-79
2023/01/01 09:54:32;;;;;;;31.55;5.20;;;11.00;99.90;;;;;;5062930;28;20064;-79
2023/01/01 09:57:01;;;;;;;32.67;4.18;;;11.10;99.90;;;;;;5031320;28;20044;-78
2023/01/01 09:59:27;;;;;;;27.63;4.13;;;11.10;99.90;;;;;;5043648;28;20052;-82
2023/01/01 10:01:59;;;;;;;32.22;4.53;;;11.10;99.90;;;;;;5032275;28;20477;-77
2023/01/01 10:04:59;;;;;;;34.75;4.82;;;11.00;99.90;;;;;;5030897;28;20048;-80
2023/01/01 10:07:44;;;;;;;29.92;4.45;;;11.10;99.90;;;;;;5046844;28;20043;-83
2023/01/01 10:10:38;;;;;;;32.72;4.55;;;11.10;99.90;;;;;;5030675;28;20044;-81
2023/01/01 10:13:26;;;;;;;33.97;4.63;;;11.10;99.90;;;;;;5032120;28;20037;-81
2023/01/01 10:15:57;;;;;;;34.42;4.55;;;11.30;99.90;;;;;;5042937;28;20392;-79
2023/01/01 10:18:32;;;;;;;29.05;4.53;;;11.20;99.90;;;;;;5059831;28;20042;-77
2023/01/01 10:21:20;;;;;;;29.27;3.95;;;11.40;99.90;;;;;;5049702;28;20547;-80
2023/01/01 10:23:50;;;;;;;32.17;3.92;;;11.30;99.90;;;;;;5040669;28;20203;-78
2023/01/01 10:26:20;;;;;;;31.67;4.40;;;11.30;99.90;;;;;;5034328;28;20041;-81
2023/01/01 10:29:02;;;;;;;26.30;4.15;;;11.30;99.90;;;;;;5036867;28;20045;-80
2023/01/01 10:31:38;;;;;;;35.80;4.97;;;11.40;99.90;;;;;;5058419;28;20451;-77
2023/01/01 10:34:26;;;;;;;30.75;4.38;;;11.40;99.90;;;;;;5043204;28;20057;-83
2023/01/01 10:36:54;;;;;;;27.00;3.75;;;11.20;99.90;;;;;;5042047;28;20041;-78
2023/01/01 10:39:20;;;;;;;28.08;4.10;;;11.30;99.90;;;;;;5019657;28;20128;-81
2023/01/01 10:41:46;;;;;;;29.75;4.18;;;11.20;99.90;;;;;;5051001;28;20619;-81
2023/01/01 10:44:16;;;;;;;23.38;3.80;;;11.20;99.90;;;;;;5034901;28;20065;-77
2023/01/01 10:46:55;;;;;;;24.25;3.63;;;11.10;99.90;;;;;;5052296;28;20059;-78
2023/01/01 10:49:21;;;;;;;24.35;3.38;;;11.20;99.90;;;;;;5031511;28;20040;-79
2023/01/01 10:51:49;;;;;;;24.60;3.80;;;11.10;99.90;;;;;;5070849;28;20106;-81
2023/01/01 10:59:30;;;;;;;22.60;3.55;;;11.10;99.90;;;;;;5057043;28;20044;-77
2023/01/01 11:02:18;;;;;;;25.67;3.53;;;11.20;99.90;;;;;;5054183;28;20040;-80
2023/01/01 11:04:44;;;;;;;16.27;3.13;;;11.10;99.90;;;;;;5034594;28;20032;-78
2023/01/01 11:07:19;;;;;;;20.83;3.22;;;11.20;99.90;;;;;;5025277;28;20112;-79
2023/01/01 11:09:48;;;;;;;27.63;4.22;;;11.20;99.90;;;;;;5015892;28;20128;-80
2023/01/01 11:12:22;;;;;;;22.83;3.20;;;11.30;99.90;;;;;;5059618;28;20061;-79
2023/01/01 11:14:54;;;;;;;26.10;3.38;;;11.30;99.90;;;;;;5033668;28;20036;-79
2023/01/01 11:17:25;;;;;;;26.00;3.75;;;11.30;99.90;;;;;;5017903;28;20381;-79
2023/01/01 11:19:51;;;;;;;20.55;3.33;;;11.40;99.90;;;;;;5061832;28;20061;-78
2023/01/01 11:22:40;;;;;;;26.08;3.60;;;11.30;99.90;;;;;;5015874;28;20029;-77
2023/01/01 11:25:31;;;;;;;23.48;3.65;;;11.40;99.90;;;;;;5034527;28;20511;-80
2023/01/01 11:28:15;;;;;;;22.63;3.20;;;11.30;99.90;;;;;;5010864;28;20172;-84
2023/01/01 11:30:56;;;;;;;19.75;3.13;;;11.30;99.90;;;;;;5026729;28;20305;-80
2023/01/01 11:33:22;;;;;;;24.27;3.65;;;11.40;99.90;;;;;;5029687;28;20471;-82
2023/01/01 11:35:52;;;;;;;21.98;3.55;;;11.30;99.90;;;;;;5026020;28;20040;-81
2023/01/01 11:38:20;;;;;;;25.10;3.40;;;11.30;99.90;;;;;;5031641;28;20069;-83
2023/01/01 11:40:50;;;;;;;20.30;3.13;;;11.30;99.90;;;;;;5031339;28;20350;-82
2023/01/01 11:43:22;;;;;;;25.63;3.67;;;11.40;99.90;;;;;;5027191;28;20033;-82
2023/01/01 11:45:50;;;;;;;27.58;3.58;;;11.30;99.90;;;;;;5011315;28;20127;-84
2023/01/01 11:48:33;;;;;;;22.35;3.03;;;11.30;99.90;;;;;;5013586;28;20037;-84
2023/01/01 11:51:05;;;;;;;24.58;2.80;;;11.10;99.90;;;;;;5042879;28;20040;-81
2023/01/01 11:54:23;;;;;;;20.45;3.63;;;11.30;99.90;;;;;;5031385;28;20088;-82
2023/01/01 11:56:52;;;;;;;24.38;3.40;;;11.30;99.90;;;;;;5043271;28;20065;-81
2023/01/01 11:59:24;;;;;;;21.27;3.28;;;11.40;99.90;;;;;;5030522;28;20483;-79
2023/01/01 12:01:56;;;;;;;20.40;3.40;;;11.40;99.90;;;;;;5029364;28;20048;-79
2023/01/01 12:04:29;;;;;;;24.70;3.40;;;11.40;99.90;;;;;;5030872;28;20495;-84
2023/01/01 12:06:58;;;;;;;20.48;3.03;;;11.40;99.90;;;;;;5027001;28;20045;-84
2023/01/01 12:09:50;;;;;;;27.50;3.58;;;11.50;99.90;;;;;;5038036;28;20194;-81
2023/01/01 12:12:33;;;;;;;22.52;3.35;;;11.60;99.90;;;;;;5011917;28;20110;-80
2023/01/01 12:15:25;;;;;;;29.10;3.60;;;11.70;99.90;;;;;;5046961;28;20068;-86
2023/01/01 12:18:15;;;;;;;19.10;3.17;;;11.70;99.90;;;;;;5025009;28;20045;-84
2023/01/01 12:20:51;;;;;;;26.33;3.85;;;11.80;99.90;;;;;;5062431;28;20029;-82
2023/01/01 12:23:18;;;;;;;23.65;3.33;;;11.70;99.90;;;;;;5054447;28;20124;-85
2023/01/01 12:25:49;;;;;;;19.65;2.80;;;11.60;99.90;;;;;;5017951;28;20440;-80
2023/01/01 12:28:32;;;;;;;23.85;3.88;;;11.60;99.90;;;;;;5051160;28;20048;-83
2023/01/01 12:31:06;;;;;;;27.20;3.33;;;11.70;99.90;;;;;;5053219;28;20049;-82
2023/01/01 12:33:38;;;;;;;23.75;3.17;;;11.60;99.90;;;;;;5043512;28;20130;-84
2023/01/01 12:36:12;;;;;;;22.25;3.15;;;11.60;99.90;;;;;;5039784;28;20621;-81
2023/01/01 12:39:16;;;;;;;21.35;3.00;;;11.80;99.90;;;;;;5048938;28;20611;-82
2023/01/01 12:42:00;;;;;;;24.88;3.38;;;11.80;99.90;;;;;;5024917;28;20041;-81
2023/01/01 12:44:52;;;;;;;22.77;3.25;;;11.80;99.90;;;;;;5011860;28;20426;-82
2023/01/01 12:47:40;;;;;;;22.83;3.58;;;11.80;99.90;;;;;;5047128;28;20091;-82
2023/01/01 12:50:30;;;;;;;21.95;3.15;;;11.90;99.90;;;;;;5029085;28;20051;-80
2023/01/01 12:53:27;;;;;;;29.83;3.72;;;11.80;99.90;;;;;;5052980;28;20056;-79
2023/01/01 12:56:31;;;;;;;16.35;3.35;;;11.80;99.90;;;;;;5028847;28;20140;-85
2023/01/01 12:59:09;;;;;;;33.92;3.97;;;11.80;99.90;;;;;;5011664;28;20091;-82
2023/01/01 13:01:36;;;;;;;22.77;3.72;;;11.90;99.90;;;;;;5029591;28;20051;-82
2023/01/01 13:04:09;;;;;;;25.02;4.00;;;11.90;99.90;;;;;;5052654;28;20059;-79
2023/01/01 13:06:51;;;;;;;26.75;3.05;;;11.90;99.90;;;;;;5034962;28;20125;-81